createdAt,value
2022-10-11T00:11:07.523Z,81.24
2022-10-11T00:26:11.019Z,81.23
2022-10-11T00:41:13.319Z,81.59
2022-10-11T00:56:23.680Z,81.89
2022-10-11T01:11:28.969Z,81.75
2022-10-11T01:27:02.920Z,81.93
2022-10-11T01:42:10.056Z,82.31
2022-10-11T01:57:43.015Z,82.63
2022-10-11T02:13:17.141Z,82.80
2022-10-11T02:28:24.462Z,83.21
2022-10-11T02:43:47.157Z,83.37
2022-10-11T02:58:49.319Z,84.15
2022-10-11T03:13:51.297Z,84.71
2022-10-11T03:28:53.328Z,85.04
2022-10-11T03:43:55.315Z,86.22
2022-10-11T03:58:57.248Z,86.68
2022-10-11T04:13:59.178Z,86.88
2022-10-11T04:29:01.099Z,87.66
2022-10-11T04:44:03.459Z,87.95
2022-10-11T04:59:05.461Z,88.33
2022-10-11T05:14:07.459Z,88.60
2022-10-11T05:29:09.318Z,88.31
2022-10-11T05:44:11.260Z,88.65
2022-10-11T05:59:13.138Z,88.09
2022-10-11T06:14:15.036Z,88.63
2022-10-11T06:29:17.028Z,88.74
2022-10-11T06:44:18.896Z,88.80
2022-10-11T06:59:21.047Z,88.52
2022-10-11T07:14:22.957Z,87.51
2022-10-11T07:29:25.248Z,86.32
2022-10-11T07:44:27.362Z,85.24
2022-10-11T07:59:29.296Z,84.12
2022-10-11T08:14:31.443Z,81.27
2022-10-11T08:29:33.895Z,79.35
2022-10-11T08:45:10.968Z,77.57
2022-10-11T09:00:17.883Z,77.27
2022-10-11T09:15:22.647Z,74.71
2022-10-11T09:30:24.674Z,73.77
2022-10-11T09:45:26.866Z,71.75
2022-10-11T10:00:33.923Z,70.04
2022-10-11T10:15:37.714Z,69.59
2022-10-11T10:30:51.403Z,66.75
2022-10-11T10:46:11.816Z,68.52
2022-10-11T11:01:18.714Z,67.09
2022-10-11T11:16:33.195Z,63.96
2022-10-11T11:32:11.832Z,61.56
2022-10-11T11:47:25.561Z,63.21
2022-10-11T12:02:48.123Z,60.79
2022-10-11T12:17:58.861Z,61.81
2022-10-11T12:33:15.388Z,60.35
2022-10-11T12:48:53.153Z,56.92
2022-10-11T13:04:02.420Z,56.25
2022-10-11T13:19:06.511Z,58.69
2022-10-11T13:34:13.002Z,59.59
2022-10-11T13:49:37.478Z,57.50
2022-10-11T14:04:41.595Z,57.85
2022-10-11T14:19:45.446Z,59.88
2022-10-11T14:34:49.654Z,60.71
2022-10-11T14:49:51.593Z,61.67
2022-10-11T15:04:53.904Z,61.93
2022-10-11T15:19:55.923Z,63.96
2022-10-11T15:34:57.823Z,66.10
2022-10-11T15:49:59.780Z,67.95
2022-10-11T16:05:01.875Z,70.46
2022-10-11T16:20:06.573Z,72.55
2022-10-11T16:35:11.596Z,74.54
2022-10-11T16:50:13.852Z,76.13
2022-10-11T17:05:18.054Z,77.60
2022-10-11T17:20:21.062Z,78.99
2022-10-11T17:35:23.233Z,80.96
2022-10-11T17:50:25.219Z,81.73
2022-10-11T18:05:28.030Z,82.82
2022-10-11T18:20:30.375Z,83.74
2022-10-11T18:35:34.514Z,83.87
2022-10-11T18:50:37.456Z,84.13
2022-10-11T19:05:40.328Z,84.57
2022-10-11T19:20:43.975Z,84.93
2022-10-11T19:35:55.933Z,84.96
2022-10-11T19:51:18.236Z,85.11
2022-10-11T20:06:22.252Z,85.98
2022-10-11T20:21:25.374Z,85.67
2022-10-11T20:36:30.147Z,85.99
2022-10-11T20:51:34.074Z,85.92
2022-10-11T21:06:36.079Z,86.31
2022-10-11T21:21:37.995Z,86.37
2022-10-11T21:36:39.913Z,86.53
2022-10-11T21:51:42.435Z,86.59
2022-10-11T22:06:44.433Z,87.01
2022-10-11T22:21:46.413Z,87.11
2022-10-11T22:36:48.362Z,86.67
2022-10-11T22:51:50.354Z,87.26
2022-10-11T23:06:52.337Z,87.01
2022-10-11T23:21:54.314Z,87.04
2022-10-11T23:36:56.275Z,87.38
2022-10-11T23:51:58.171Z,87.39
